Time;durP1;ratioP1;P1;durP2;ratioP2;P2;SDS_P1;SDS_P2;PMS_P1;PMS_P2;Temp;Humidity;BMP_temperature;BMP_pressure;BME280_temperature;BME280_humidity;BME280_pressure;Samples;Min_cycle;Max_cycle;Signal;HPM_P1;HPM_P2
2022/03/13 00:02:15;;;;;;;21.10;11.70;;;;;;;-143.84;54.86;45266.16;5052124;28;20442;-74
2022/03/13 00:04:43;;;;;;;20.70;10.00;;;;;;;-143.84;55.13;45233.78;5052355;28;20445;-74
2022/03/13 00:07:19;;;;;;;20.80;9.90;;;;;;;-143.84;55.43;45247.09;5052011;28;20511;-74
2022/03/13 00:09:49;;;;;;;18.77;11.27;;;;;;;-143.84;55.80;45229.97;5052290;28;20495;-74
2022/03/13 00:12:26;;;;;;;17.35;10.30;;;;;;;-143.84;55.73;45283.28;5052305;28;20437;-74
2022/03/13 00:14:55;;;;;;;17.08;10.38;;;;;;;-143.84;55.76;45222.34;5052073;28;20191;-74
2022/03/13 00:17:28;;;;;;;18.35;10.80;;;;;;;-143.84;56.28;45224.25;5052088;28;20200;-74
2022/03/13 00:19:55;;;;;;;16.70;9.80;;;;;;;-143.84;56.11;45216.63;5052234;28;20291;-74
2022/03/13 00:22:23;;;;;;;27.23;12.35;;;;;;;-143.84;56.65;45212.84;5052181;28;20458;-75
2022/03/13 00:24:50;;;;;;;20.67;11.23;;;;;;;-143.84;56.34;45226.16;5051968;28;20538;-74
2022/03/13 00:27:17;;;;;;;22.57;12.10;;;;;;;-143.84;56.56;45218.53;5052061;28;20433;-74
2022/03/13 00:29:44;;;;;;;15.27;9.77;;;;;;;-143.84;56.53;45226.16;5051900;28;20947;-74
2022/03/13 00:32:12;;;;;;;23.08;9.00;;;;;;;-143.84;56.44;45231.88;5052002;28;20495;-74
2022/03/13 00:34:40;;;;;;;16.95;9.07;;;;;;;-143.84;56.51;45258.53;5052147;28;20199;-75
2022/03/13 00:37:08;;;;;;;14.20;9.90;;;;;;;-143.84;57.13;45233.78;5052059;28;20199;-74
2022/03/13 00:39:40;;;;;;;13.75;8.73;;;;;;;-143.84;56.78;45239.50;5051614;28;20450;-74
2022/03/13 00:42:08;;;;;;;16.35;8.25;;;;;;;-143.84;57.15;45216.63;5052102;28;20249;-74
2022/03/13 00:44:35;;;;;;;17.20;8.57;;;;;;;-143.84;57.53;45218.53;5051818;28;20982;-74
2022/03/13 00:47:05;;;;;;;13.07;9.02;;;;;;;-143.84;57.39;45247.09;5051463;28;20511;-75
2022/03/13 00:49:33;;;;;;;10.43;8.33;;;;;;;-143.84;57.63;45216.63;5051706;28;20213;-74
2022/03/13 00:52:03;;;;;;;12.02;8.93;;;;;;;-143.84;57.78;45174.75;5051399;28;20480;-74
2022/03/13 00:54:33;;;;;;;12.57;8.63;;;;;;;-143.84;57.64;45285.19;5051504;28;20191;-74
2022/03/13 00:57:00;;;;;;;15.90;8.93;;;;;;;-143.84;57.63;45205.22;5051132;28;20441;-74
2022/03/13 00:59:27;;;;;;;11.77;8.20;;;;;;;-143.84;57.73;45231.88;5051203;28;20476;-74
2022/03/13 01:01:54;;;;;;;13.35;7.90;;;;;;;-143.84;57.48;45231.88;5051363;28;20600;-74
2022/03/13 01:04:22;;;;;;;13.00;8.57;;;;;;;-143.84;57.71;45235.69;5051160;28;20203;-74
2022/03/13 01:06:49;;;;;;;13.85;10.02;;;;;;;-143.84;57.71;45231.88;5050561;28;20208;-74
2022/03/13 01:09:17;;;;;;;11.35;8.55;;;;;;;-143.84;57.45;45228.06;5051001;28;20195;-75
2022/03/13 01:11:45;;;;;;;13.55;9.27;;;;;;;-143.84;57.45;45189.97;5051428;28;20219;-74
2022/03/13 01:14:13;;;;;;;13.03;7.63;;;;;;;-143.84;57.42;45226.16;5050787;28;20249;-74
2022/03/13 01:16:42;;;;;;;10.57;7.40;;;;;;;-143.84;57.53;45229.97;5051021;28;20525;-74
2022/03/13 01:19:10;;;;;;;10.10;7.65;;;;;;;-143.84;57.68;45309.94;5051124;28;20261;-74
2022/03/13 01:21:38;;;;;;;14.45;9.35;;;;;;;-143.84;57.36;45235.69;5050995;28;20210;-74
2022/03/13 01:24:44;;;;;;;12.75;7.97;;;;;;;-143.84;57.57;45216.63;5050974;28;20238;-74
2022/03/13 01:27:13;;;;;;;13.30;9.20;;;;;;;-143.84;57.98;45201.41;5045986;28;20195;-74
2022/03/13 01:29:41;;;;;;;10.07;8.07;;;;;;;-143.84;57.79;45296.63;5050215;28;20430;-73
2022/03/13 01:32:11;;;;;;;11.82;7.93;;;;;;;-143.84;57.93;45212.84;5050362;28;20258;-74
2022/03/13 01:34:50;;;;;;;9.93;7.63;;;;;;;-143.84;57.76;45218.53;5050406;28;20656;-73
2022/03/13 01:37:33;;;;;;;13.93;7.90;;;;;;;-143.84;57.88;45258.53;5050665;28;20210;-74
2022/03/13 01:40:06;;;;;;;11.27;7.95;;;;;;;-143.84;58.01;45226.16;5048620;28;20232;-73
2022/03/13 01:42:33;;;;;;;14.30;7.97;;;;;;;-143.84;58.14;45226.16;5050121;28;20204;-74
2022/03/13 01:45:00;;;;;;;10.77;8.73;;;;;;;-143.84;58.08;45254.72;5050156;28;20437;-73
2022/03/13 01:47:28;;;;;;;12.25;8.27;;;;;;;-143.84;58.43;45216.63;5050171;28;20473;-74
2022/03/13 01:49:56;;;;;;;11.90;8.10;;;;;;;-143.84;58.09;45199.50;5050447;28;20715;-74
2022/03/13 01:52:27;;;;;;;13.18;8.88;;;;;;;-143.84;58.51;45245.19;5050249;28;20735;-73
2022/03/13 01:54:55;;;;;;;13.13;9.20;;;;;;;-143.84;58.42;45214.72;5050362;28;20215;-74
2022/03/13 01:57:24;;;;;;;13.02;7.88;;;;;;;-143.84;58.21;45243.31;5050205;28;20229;-74
2022/03/13 01:59:53;;;;;;;11.15;7.38;;;;;;;-143.84;57.93;45231.88;5050843;28;20253;-73
2022/03/13 02:02:21;;;;;;;11.02;8.15;;;;;;;-143.84;58.30;45231.88;5050751;28;20217;-73
2022/03/13 02:04:52;;;;;;;13.38;8.65;;;;;;;-143.84;57.94;45233.78;5050428;28;20253;-74
2022/03/13 02:07:19;;;;;;;11.70;8.60;;;;;;;-143.84;57.77;45212.84;5051018;28;20225;-74
2022/03/13 02:09:48;;;;;;;11.20;8.23;;;;;;;-143.84;57.85;45222.34;5050764;28;20503;-74
2022/03/13 02:12:19;;;;;;;13.43;7.90;;;;;;;-143.84;57.72;45212.84;5050269;28;21174;-74
2022/03/13 02:14:48;;;;;;;12.80;8.80;;;;;;;-143.84;57.16;45249.00;5050553;28;20442;-74
2022/03/13 02:17:26;;;;;;;13.00;8.13;;;;;;;-143.84;57.68;45203.31;5050356;28;20453;-74
2022/03/13 02:19:54;;;;;;;13.20;7.50;;;;;;;-143.84;57.68;45212.84;5050279;28;20524;-74
2022/03/13 02:22:22;;;;;;;10.13;7.85;;;;;;;-143.84;57.19;45224.25;5050607;28;21256;-74
2022/03/13 02:24:52;;;;;;;11.02;8.05;;;;;;;-143.84;56.62;45199.50;5050588;28;20257;-74
2022/03/13 02:27:22;;;;;;;13.60;7.63;;;;;;;-143.84;57.10;45220.44;5053578;28;20219;-75
2022/03/13 02:29:50;;;;;;;11.20;7.53;;;;;;;-143.84;56.95;45237.59;5054181;28;20215;-77
2022/03/13 02:32:19;;;;;;;11.30;7.80;;;;;;;-143.84;57.11;45199.50;5053894;28;21002;-77
2022/03/13 02:34:46;;;;;;;10.27;7.03;;;;;;;-143.84;57.04;45241.41;5053699;28;20441;-77
2022/03/13 02:37:31;;;;;;;9.43;7.30;;;;;;;-143.84;56.69;45216.63;5053655;28;20203;-77
2022/03/13 02:39:59;;;;;;;9.70;8.00;;;;;;;-143.84;56.94;45220.44;5053475;28;20503;-77
2022/03/13 02:42:26;;;;;;;9.40;8.00;;;;;;;-143.84;56.83;45229.97;5053569;28;20483;-78
2022/03/13 02:44:53;;;;;;;8.98;6.57;;;;;;;-143.84;56.59;45224.25;5053114;28;20851;-78
2022/03/13 02:47:20;;;;;;;10.65;8.60;;;;;;;-143.84;56.89;45228.06;5053348;28;20389;-78
2022/03/13 02:49:47;;;;;;;9.30;7.33;;;;;;;-143.84;56.09;45214.72;5053293;28;20257;-77
2022/03/13 02:52:15;;;;;;;15.93;7.90;;;;;;;-143.84;56.10;45228.06;5051362;28;20542;-77
2022/03/13 02:54:42;;;;;;;10.43;6.80;;;;;;;-143.84;55.73;45203.31;5051305;28;20433;-78
2022/03/13 02:57:11;;;;;;;11.77;7.73;;;;;;;-143.84;55.99;45224.25;5051053;28;20488;-77
2022/03/13 02:59:38;;;;;;;8.85;7.03;;;;;;;-143.84;55.53;45209.03;5052689;28;20453;-77
2022/03/13 03:02:05;;;;;;;11.30;8.13;;;;;;;-143.84;55.73;45205.22;5053341;28;20207;-77
2022/03/13 03:04:33;;;;;;;8.82;6.47;;;;;;;-143.84;55.58;45239.50;5052919;28;20438;-78
2022/03/13 03:07:02;;;;;;;7.33;6.50;;;;;;;-143.84;55.19;45216.63;5053020;28;20195;-78
2022/03/13 03:09:31;;;;;;;15.70;6.73;;;;;;;-143.84;55.02;45212.84;5052735;28;20445;-78
2022/03/13 03:12:00;;;;;;;7.00;6.30;;;;;;;-143.84;55.12;45220.44;5052771;28;20519;-78
2022/03/13 03:14:30;;;;;;;7.45;6.30;;;;;;;-143.84;55.36;45254.72;5053053;28;20438;-77
2022/03/13 03:16:57;;;;;;;10.00;6.73;;;;;;;-143.84;54.87;45214.72;5052882;28;20327;-77
2022/03/13 03:19:25;;;;;;;9.73;6.63;;;;;;;-143.84;54.49;45212.84;5052775;28;21323;-77
2022/03/13 03:21:53;;;;;;;7.07;6.37;;;;;;;-143.84;54.86;45233.78;5052488;28;20477;-77
2022/03/13 03:24:23;;;;;;;8.37;6.50;;;;;;;-143.84;54.56;45205.22;5052455;28;21185;-77
2022/03/13 03:26:50;;;;;;;11.93;7.07;;;;;;;-143.84;54.75;45201.41;5052205;28;20442;-77
2022/03/13 03:29:18;;;;;;;10.00;6.60;;;;;;;-143.84;54.72;45228.06;5052557;28;20568;-77
2022/03/13 03:31:48;;;;;;;10.40;7.40;;;;;;;-143.84;54.84;45226.16;5052139;28;20567;-77
2022/03/13 03:34:18;;;;;;;8.03;6.53;;;;;;;-143.84;54.84;45239.50;5052440;28;20454;-77
2022/03/13 03:36:48;;;;;;;11.97;7.00;;;;;;;-143.84;54.96;45189.97;5052443;28;20499;-77
2022/03/13 03:39:17;;;;;;;10.30;7.10;;;;;;;-143.84;54.96;45216.63;5052608;28;21001;-77
2022/03/13 03:41:46;;;;;;;8.90;7.10;;;;;;;-143.84;54.82;45231.88;5052599;28;20433;-78
2022/03/13 03:44:14;;;;;;;12.37;6.50;;;;;;;-143.84;54.77;45233.78;5052701;28;20442;-78
2022/03/13 03:46:43;;;;;;;9.47;6.60;;;;;;;-143.84;55.07;45226.16;5052234;28;21254;-78
2022/03/13 03:49:11;;;;;;;11.80;7.80;;;;;;;-143.84;54.86;45222.34;5052185;28;20555;-78
2022/03/13 03:51:39;;;;;;;12.30;7.40;;;;;;;-143.84;54.56;45220.44;5052171;28;20465;-77
2022/03/13 03:54:08;;;;;;;8.83;7.07;;;;;;;-143.84;54.63;45226.16;5052032;28;20985;-77
2022/03/13 03:56:36;;;;;;;7.97;6.60;;;;;;;-143.84;54.53;45220.44;5052060;28;20457;-77
2022/03/13 03:59:04;;;;;;;10.20;6.97;;;;;;;-143.84;54.67;45243.31;5052003;28;20942;-77
2022/03/13 04:01:37;;;;;;;9.63;6.63;;;;;;;-143.84;54.61;45233.78;5052020;28;21021;-77
2022/03/13 04:04:06;;;;;;;10.33;7.07;;;;;;;-143.84;54.58;45203.31;5052284;28;20482;-78
2022/03/13 04:06:37;;;;;;;10.03;7.00;;;;;;;-143.84;54.74;45201.41;5051941;28;20500;-77
2022/03/13 04:09:06;;;;;;;11.87;8.13;;;;;;;-143.84;54.32;45220.44;5051717;28;20446;-77
2022/03/13 04:11:33;;;;;;;10.70;8.33;;;;;;;-143.84;54.63;45193.78;5051771;28;20477;-78
2022/03/13 04:14:00;;;;;;;10.17;6.50;;;;;;;-143.84;54.57;45205.22;5051480;28;20438;-77
2022/03/13 04:16:27;;;;;;;9.53;7.20;;;;;;;-143.84;54.79;45197.59;5051780;28;20434;-77
2022/03/13 04:18:55;;;;;;;7.97;6.50;;;;;;;-143.84;54.60;45172.84;5051638;28;20441;-77
2022/03/13 04:21:24;;;;;;;8.23;6.73;;;;;;;-143.84;55.12;45210.94;5052083;28;20581;-78
2022/03/13 04:23:53;;;;;;;10.82;8.50;;;;;;;-143.84;54.60;45210.94;5034407;28;20452;-78
2022/03/13 04:26:22;;;;;;;10.23;6.38;;;;;;;-143.84;55.23;45235.69;5051426;28;20199;-77
2022/03/13 04:28:49;;;;;;;7.73;6.50;;;;;;;-143.84;54.78;45218.53;5051412;28;20316;-78
2022/03/13 04:31:18;;;;;;;9.93;6.90;;;;;;;-143.84;55.06;45209.03;5051834;28;20566;-77
2022/03/13 04:33:45;;;;;;;8.00;7.20;;;;;;;-143.84;55.31;45228.06;5051615;28;20599;-77
2022/03/13 04:36:14;;;;;;;9.57;6.47;;;;;;;-143.84;55.71;45228.06;5051521;28;20456;-77
2022/03/13 04:38:42;;;;;;;10.23;7.00;;;;;;;-143.84;55.26;45201.41;5051458;28;20500;-78
2022/03/13 04:41:11;;;;;;;10.23;7.37;;;;;;;-143.84;55.40;45207.13;5051248;28;20446;-78
2022/03/13 04:43:38;;;;;;;12.90;6.93;;;;;;;-143.84;55.67;45254.72;5051493;28;20830;-78
2022/03/13 04:46:05;;;;;;;11.43;7.27;;;;;;;-143.84;55.94;45212.84;5051453;28;20499;-78
2022/03/13 04:48:34;;;;;;;11.27;7.30;;;;;;;-143.84;55.69;45216.63;5050419;28;20524;-78
2022/03/13 04:51:02;;;;;;;8.70;6.73;;;;;;;-143.84;55.71;45237.59;5051194;28;20434;-77
2022/03/13 04:53:29;;;;;;;19.88;8.07;;;;;;;-143.84;55.66;45235.69;5050835;28;20441;-77
2022/03/13 04:55:56;;;;;;;14.80;7.63;;;;;;;-143.84;55.71;45180.47;5050700;28;20207;-77
2022/03/13 04:58:25;;;;;;;9.43;6.80;;;;;;;-143.84;55.72;45201.41;5051024;28;20434;-77
2022/03/13 05:00:53;;;;;;;12.27;7.77;;;;;;;-143.84;55.61;45235.69;5050871;28;20533;-77
2022/03/13 05:03:20;;;;;;;11.87;7.97;;;;;;;-143.84;55.67;45249.00;5051209;28;20453;-77
2022/03/13 05:05:47;;;;;;;8.97;7.10;;;;;;;-143.84;55.41;45229.97;5050900;28;20773;-77
2022/03/13 05:08:15;;;;;;;7.67;5.83;;;;;;;-143.84;55.51;45195.69;5050784;28;20499;-78
2022/03/13 05:10:43;;;;;;;6.97;5.83;;;;;;;-143.84;55.07;45209.03;5050949;28;20448;-78
2022/03/13 05:13:13;;;;;;;8.87;7.07;;;;;;;-143.84;54.94;45214.72;5051056;28;20559;-78
2022/03/13 05:15:42;;;;;;;10.40;7.10;;;;;;;-143.84;54.79;45231.88;5051086;28;20777;-77
2022/03/13 05:18:10;;;;;;;8.27;6.70;;;;;;;-143.84;53.27;45199.50;5050721;28;20453;-78
2022/03/13 05:20:37;;;;;;;12.47;8.50;;;;;;;-143.84;51.90;45218.53;5050530;28;20953;-78
2022/03/13 05:23:07;;;;;;;9.10;6.97;;;;;;;-143.84;50.05;45189.97;5032761;28;20437;-78
2022/03/13 05:25:34;;;;;;;9.00;6.83;;;;;;;-143.84;49.42;45235.69;5050634;28;20446;-78
2022/03/13 05:28:02;;;;;;;10.23;7.10;;;;;;;-143.84;48.50;45186.16;5050951;28;20508;-78
2022/03/13 05:30:29;;;;;;;8.60;7.40;;;;;;;-143.84;47.20;45216.63;5051073;28;20495;-78
2022/03/13 05:32:58;;;;;;;12.83;8.03;;;;;;;-143.84;46.61;45182.38;5050701;28;20493;-78
2022/03/13 05:35:26;;;;;;;9.67;7.43;;;;;;;-143.84;46.04;45178.56;5050489;28;20438;-78
2022/03/13 05:37:53;;;;;;;13.63;7.50;;;;;;;-143.84;45.42;45214.72;5050401;28;20523;-77
2022/03/13 05:40:21;;;;;;;12.37;8.63;;;;;;;-143.84;45.66;45201.41;5050588;28;21117;-78
2022/03/13 05:42:50;;;;;;;10.50;7.93;;;;;;;-143.84;44.82;45205.22;5043388;28;20434;-77
2022/03/13 05:45:20;;;;;;;11.00;7.20;;;;;;;-143.84;44.21;45222.34;5050026;28;21335;-77
2022/03/13 05:47:49;;;;;;;9.10;6.73;;;;;;;-143.84;44.24;45180.47;5049608;28;21068;-78
2022/03/13 05:50:18;;;;;;;9.27;7.27;;;;;;;-143.84;44.85;45184.25;5050315;28;20434;-77
2022/03/13 05:52:46;;;;;;;10.47;7.33;;;;;;;-143.84;43.46;45195.69;5050520;28;20465;-77
2022/03/13 05:55:14;;;;;;;9.20;8.03;;;;;;;-143.84;43.29;45170.94;5050112;28;20504;-78
2022/03/13 05:57:41;;;;;;;8.80;6.80;;;;;;;-143.84;43.37;45193.78;5049811;28;20451;-78
2022/03/13 06:00:11;;;;;;;8.70;6.40;;;;;;;-143.84;43.38;45178.56;5049981;28;20508;-77
2022/03/13 06:02:40;;;;;;;8.53;7.13;;;;;;;-143.84;42.75;45142.38;5053483;28;20442;-78
2022/03/13 06:05:10;;;;;;;9.77;6.70;;;;;;;-143.84;43.53;45188.06;5052912;28;20468;-77
2022/03/13 06:07:39;;;;;;;9.60;6.60;;;;;;;-143.84;42.66;45193.78;5054177;28;20475;-77
2022/03/13 06:10:08;;;;;;;7.33;6.63;;;;;;;-143.84;44.88;45184.25;5054349;28;20497;-76
2022/03/13 06:12:36;;;;;;;9.37;6.67;;;;;;;-143.84;43.62;45197.59;5053211;28;20541;-76
2022/03/13 06:15:05;;;;;;;7.97;6.60;;;;;;;-143.84;43.88;45176.66;5052520;28;21026;-76
2022/03/13 06:17:32;;;;;;;9.47;7.27;;;;;;;-143.84;43.06;45184.25;5052667;28;20426;-76
2022/03/13 06:20:00;;;;;;;10.03;7.40;;;;;;;-143.84;42.83;45189.97;5052183;28;20548;-77
2022/03/13 06:22:27;;;;;;;14.10;8.17;;;;;;;-143.84;42.89;45197.59;5052569;28;20460;-76
2022/03/13 06:24:55;;;;;;;8.17;7.03;;;;;;;-143.84;42.75;45161.41;5053143;28;21214;-77
2022/03/13 06:27:23;;;;;;;17.10;6.80;;;;;;;-143.84;42.28;45161.41;5052280;28;20442;-76
2022/03/13 06:29:50;;;;;;;9.37;6.93;;;;;;;-143.84;41.56;45170.94;5052925;28;20432;-75
2022/03/13 06:32:17;;;;;;;12.47;9.60;;;;;;;-143.84;41.79;45195.69;5053360;28;20533;-77
2022/03/13 06:34:44;;;;;;;10.10;7.47;;;;;;;-143.84;40.97;45209.03;5053217;28;20441;-77
2022/03/13 06:37:12;;;;;;;7.60;6.40;;;;;;;-143.84;41.03;45178.56;5053248;28;20512;-77
2022/03/13 06:39:39;;;;;;;9.70;7.37;;;;;;;-143.84;40.67;45165.22;5053146;28;20460;-77
2022/03/13 06:42:08;;;;;;;8.57;7.07;;;;;;;-143.84;41.23;45169.03;5052568;28;20429;-77
2022/03/13 06:44:36;;;;;;;13.13;7.30;;;;;;;-143.84;40.58;45167.13;5053356;28;20844;-75
2022/03/13 06:47:04;;;;;;;13.60;7.97;;;;;;;-143.84;40.31;45144.28;5050491;28;20455;-76
2022/03/13 06:49:31;;;;;;;19.67;10.57;;;;;;;-143.84;39.89;45189.97;5041553;28;20471;-76
2022/03/13 06:51:59;;;;;;;19.20;11.90;;;;;;;-143.84;39.77;45136.66;5043483;28;20512;-77
2022/03/13 06:54:26;;;;;;;22.87;12.00;;;;;;;-143.84;40.23;45163.31;5045741;28;20814;-76
2022/03/13 06:56:53;;;;;;;9.13;7.43;;;;;;;-143.84;39.54;45148.09;5045154;28;20453;-76
2022/03/13 06:59:21;;;;;;;12.77;7.20;;;;;;;-143.84;38.81;45170.94;5041363;28;20997;-76
2022/03/13 07:01:49;;;;;;;9.37;7.50;;;;;;;-143.84;39.11;45172.84;5039812;28;21147;-78
2022/03/13 07:04:16;;;;;;;11.80;7.30;;;;;;;-143.84;38.41;45186.16;5043817;28;20473;-76
2022/03/13 07:06:43;;;;;;;10.10;7.63;;;;;;;-143.84;38.24;45159.50;5050052;28;20456;-76
2022/03/13 07:09:10;;;;;;;15.47;9.00;;;;;;;-143.84;38.14;45161.41;5039596;28;20450;-76
2022/03/13 07:11:42;;;;;;;10.77;7.43;;;;;;;-143.84;37.78;45161.41;5040457;28;20442;-75
2022/03/13 07:14:11;;;;;;;9.20;7.40;;;;;;;-143.84;37.74;45178.56;5051675;28;20478;-77
2022/03/13 07:16:39;;;;;;;8.30;7.00;;;;;;;-143.84;38.04;45155.69;5063286;28;20441;-77
2022/03/13 07:19:07;;;;;;;11.87;7.70;;;;;;;-143.84;37.64;45159.50;5043880;28;20499;-77
2022/03/13 07:21:34;;;;;;;8.70;6.60;;;;;;;-143.84;38.04;45189.97;5056705;28;20448;-77
2022/03/13 07:24:01;;;;;;;12.50;7.13;;;;;;;-143.84;37.06;45155.69;5060410;28;20441;-77
2022/03/13 07:26:28;;;;;;;12.70;8.30;;;;;;;-143.84;36.87;45130.94;5049264;28;20851;-77
2022/03/13 07:28:55;;;;;;;8.17;7.07;;;;;;;-143.84;36.77;45140.47;5058778;28;20441;-76
2022/03/13 07:31:25;;;;;;;10.20;6.90;;;;;;;-143.84;36.08;45144.28;5068505;28;20456;-74
2022/03/13 07:33:53;;;;;;;10.03;7.90;;;;;;;-143.84;36.10;45125.22;5051022;28;20491;-74
2022/03/13 07:36:21;;;;;;;10.60;7.20;;;;;;;-143.84;36.30;45161.41;5059876;28;20441;-73
2022/03/13 07:38:48;;;;;;;10.67;7.10;;;;;;;-143.84;35.70;45150.00;5056501;28;20453;-73
2022/03/13 07:41:15;;;;;;;10.83;8.63;;;;;;;-143.84;35.62;45129.03;5065927;28;20457;-74
2022/03/13 07:43:42;;;;;;;11.90;7.80;;;;;;;-143.84;35.59;45144.28;5060399;28;20446;-73
2022/03/13 07:46:09;;;;;;;9.60;7.83;;;;;;;-143.84;34.65;45140.47;5053348;28;20446;-73
2022/03/13 07:48:36;;;;;;;8.17;7.37;;;;;;;-143.84;35.49;45125.22;5006990;28;1501178;-74
2022/03/13 07:51:05;;;;;;;10.43;8.20;;;;;;;-143.84;34.57;45151.91;5055440;28;20211;-74
2022/03/13 07:53:32;;;;;;;8.50;7.30;;;;;;;-143.84;33.97;45115.72;5062236;28;20481;-74
2022/03/13 07:56:00;;;;;;;10.40;7.70;;;;;;;-143.84;34.25;45151.91;5053778;28;20450;-73
2022/03/13 07:58:28;;;;;;;12.23;7.00;;;;;;;-143.84;33.89;45117.63;5053487;28;20484;-73
2022/03/13 08:00:55;;;;;;;10.93;7.20;;;;;;;-143.84;33.67;45111.91;5057453;28;20442;-76
2022/03/13 08:03:28;;;;;;;6.90;6.30;;;;;;;-143.84;32.98;45144.28;5057637;28;20959;-76
2022/03/13 08:05:55;;;;;;;9.03;7.33;;;;;;;-143.84;33.28;45136.66;5050716;28;20451;-76
2022/03/13 08:08:23;;;;;;;6.77;5.13;;;;;;;-143.84;31.96;45106.19;5042142;28;20457;-76
2022/03/13 08:10:51;;;;;;;8.87;7.10;;;;;;;-143.84;32.66;45108.09;5059535;28;20498;-75
2022/03/13 08:13:18;;;;;;;9.50;6.60;;;;;;;-143.84;31.57;45140.47;5048710;28;20893;-74
2022/03/13 08:15:45;;;;;;;7.33;6.03;;;;;;;-143.84;31.51;45125.22;5050830;28;20511;-74
2022/03/13 08:18:13;;;;;;;8.43;5.73;;;;;;;-143.84;31.40;45090.97;5067945;28;20443;-75
2022/03/13 08:20:40;;;;;;;6.13;5.53;;;;;;;-143.84;31.60;45127.13;5068509;28;20501;-75
2022/03/13 08:23:07;;;;;;;6.17;5.57;;;;;;;-143.84;31.49;45087.16;5047647;28;20534;-75
2022/03/13 08:25:36;;;;;;;8.37;5.80;;;;;;;-143.84;31.33;45083.34;5050321;28;20447;-75
2022/03/13 08:28:04;;;;;;;7.90;6.13;;;;;;;-143.84;31.60;45094.78;5067982;28;20444;-75
2022/03/13 08:30:31;;;;;;;6.43;5.57;;;;;;;-143.84;31.26;45108.09;5062960;28;20469;-76
2022/03/13 08:32:58;;;;;;;6.97;5.30;;;;;;;-143.84;30.88;45090.97;5063054;28;20485;-75
2022/03/13 08:35:26;;;;;;;8.03;6.30;;;;;;;-143.84;30.47;45113.81;5067871;28;20441;-75
2022/03/13 08:37:54;;;;;;;10.97;6.87;;;;;;;-143.84;30.69;45108.09;5059008;28;20993;-75
2022/03/13 08:40:21;;;;;;;9.53;7.83;;;;;;;-143.84;30.44;45115.72;5048455;28;20438;-75
2022/03/13 08:42:49;;;;;;;9.13;7.23;;;;;;;-143.84;29.81;45121.44;5048470;28;20466;-75
2022/03/13 08:45:16;;;;;;;6.77;5.80;;;;;;;-143.84;29.99;45096.66;5050957;28;20524;-75
2022/03/13 08:47:44;;;;;;;9.90;6.77;;;;;;;-143.84;30.17;45108.09;5067241;28;21067;-75
2022/03/13 08:50:12;;;;;;;6.57;5.93;;;;;;;-143.84;30.13;45136.66;5060483;28;20453;-75
2022/03/13 08:52:39;;;;;;;8.80;6.90;;;;;;;-143.84;30.38;45100.47;5064427;28;20526;-77
2022/03/13 08:55:08;;;;;;;6.33;5.40;;;;;;;-143.84;29.70;45102.38;5053090;28;20519;-73
2022/03/13 08:57:35;;;;;;;7.90;5.60;;;;;;;-143.84;29.61;45111.91;5054454;28;20444;-73
2022/03/13 09:00:05;;;;;;;6.27;5.67;;;;;;;-143.84;30.62;45110.00;5058083;28;20452;-75
2022/03/13 09:02:33;;;;;;;9.03;5.57;;;;;;;-143.84;30.42;45110.00;5067020;28;20460;-76
2022/03/13 09:05:00;;;;;;;15.40;6.60;;;;;;;-143.84;30.46;45102.38;5066993;28;20440;-76
2022/03/13 09:07:27;;;;;;;7.00;4.60;;;;;;;-143.84;31.19;45123.34;5063478;28;20584;-76
2022/03/13 09:09:54;;;;;;;10.53;6.80;;;;;;;-143.84;31.03;45110.00;5063989;28;20455;-75
2022/03/13 09:12:21;;;;;;;5.70;5.10;;;;;;;-143.84;30.98;45123.34;5059233;28;20449;-76
2022/03/13 09:14:48;;;;;;;9.63;5.80;;;;;;;-143.84;31.05;45108.09;5051206;28;21019;-76
2022/03/13 09:17:17;;;;;;;6.77;6.07;;;;;;;-143.84;30.79;45136.66;5061331;28;20984;-74
2022/03/13 09:19:45;;;;;;;14.20;5.20;;;;;;;-143.84;31.18;45129.03;5044005;28;20505;-76
2022/03/13 09:22:14;;;;;;;5.93;5.33;;;;;;;-143.84;31.09;45140.47;5055226;28;20451;-73
2022/03/13 09:24:41;;;;;;;5.27;4.77;;;;;;;-143.84;30.98;45136.66;5062926;28;20516;-76
2022/03/13 09:27:08;;;;;;;8.17;4.87;;;;;;;-143.84;30.51;45142.38;5052699;28;20464;-73
2022/03/13 09:29:35;;;;;;;6.00;5.40;;;;;;;-143.84;31.55;45106.19;5059629;28;20495;-76
2022/03/13 09:32:02;;;;;;;9.60;5.30;;;;;;;-143.84;30.95;45125.22;5047021;28;20466;-75
2022/03/13 09:34:31;;;;;;;4.50;3.73;;;;;;;-143.84;31.15;45113.81;5050916;28;20481;-75
2022/03/13 09:36:59;;;;;;;3.70;3.40;;;;;;;-143.84;31.60;45148.09;5046898;28;20968;-74
2022/03/13 09:39:26;;;;;;;9.03;4.37;;;;;;;-143.84;31.81;45100.47;5056773;28;20457;-73
2022/03/13 09:41:54;;;;;;;6.83;4.30;;;;;;;-143.84;31.87;45132.84;5046943;28;20864;-74
2022/03/13 09:44:21;;;;;;;7.30;4.60;;;;;;;-143.84;34.56;45119.53;5057079;28;20441;-74
2022/03/13 09:46:49;;;;;;;5.83;5.20;;;;;;;-143.84;34.12;45123.34;5047973;28;21009;-76
2022/03/13 09:49:17;;;;;;;6.37;5.13;;;;;;;-143.84;33.23;45134.75;5056576;28;20504;-73
2022/03/13 09:51:46;;;;;;;19.13;6.00;;;;;;;-143.84;32.20;45134.75;5046990;28;20870;-74
2022/03/13 09:54:13;;;;;;;13.13;5.80;;;;;;;-143.84;32.17;45127.13;5057162;28;20479;-75
2022/03/13 09:56:40;;;;;;;8.33;6.87;;;;;;;-143.84;32.00;45117.63;5055591;28;20447;-74
2022/03/13 09:59:08;;;;;;;8.33;7.13;;;;;;;-143.84;32.03;45148.09;5064378;28;20513;-74
2022/03/13 10:01:35;;;;;;;7.10;5.20;;;;;;;-143.84;31.97;45129.03;5063660;28;20443;-75
2022/03/13 10:04:04;;;;;;;7.73;4.97;;;;;;;-143.84;31.08;45138.56;5066145;28;20487;-74
2022/03/13 10:06:33;;;;;;;13.30;5.07;;;;;;;-143.84;30.98;45140.47;5058809;28;20463;-74
2022/03/13 10:09:26;;;;;;;6.17;4.83;;;;;;;-143.84;31.22;45111.91;5035371;28;20460;-74
2022/03/13 10:12:04;;;;;;;7.93;6.00;;;;;;;-143.84;31.72;45129.03;5037802;28;20454;-75
2022/03/13 10:14:31;;;;;;;8.83;5.57;;;;;;;-143.84;31.41;45117.63;5039686;28;20488;-73
2022/03/13 10:16:59;;;;;;;7.57;5.20;;;;;;;-143.84;31.15;45129.03;5042679;28;20507;-75
2022/03/13 10:19:31;;;;;;;4.80;4.30;;;;;;;-143.84;31.70;45132.84;5036570;28;20916;-75
2022/03/13 10:22:07;;;;;;;11.07;5.70;;;;;;;-143.84;31.83;45132.84;5042187;28;20453;-76
2022/03/13 10:24:44;;;;;;;9.93;6.77;;;;;;;-143.84;32.20;45108.09;5046602;28;20448;-78
2022/03/13 10:27:14;;;;;;;8.63;6.23;;;;;;;-143.84;31.41;45098.56;5037923;28;20457;-76
2022/03/13 10:29:42;;;;;;;11.63;5.70;;;;;;;-143.84;31.67;45106.19;5050090;28;21010;-74
2022/03/13 10:32:10;;;;;;;9.57;6.40;;;;;;;-143.84;32.34;45119.53;5038843;28;20540;-76
2022/03/13 10:34:38;;;;;;;9.60;6.30;;;;;;;-143.84;32.43;45134.75;5042267;28;20486;-76
2022/03/13 10:37:06;;;;;;;8.77;6.17;;;;;;;-143.84;33.09;45121.44;5039885;28;20865;-75
2022/03/13 10:39:34;;;;;;;8.60;5.57;;;;;;;-143.84;32.69;45125.22;5042104;28;20463;-75
2022/03/13 10:42:03;;;;;;;5.50;4.80;;;;;;;-143.84;31.80;45127.13;5038776;28;20566;-76
2022/03/13 10:44:34;;;;;;;7.97;5.60;;;;;;;-143.84;32.08;45138.56;5037417;28;20470;-74
2022/03/13 10:47:04;;;;;;;6.37;5.77;;;;;;;-143.84;32.97;45125.22;5034542;28;20657;-73
2022/03/13 10:49:41;;;;;;;8.40;7.23;;;;;;;-143.84;35.80;45130.94;5044358;28;20492;-74
2022/03/13 10:52:29;;;;;;;14.50;7.97;;;;;;;-143.84;36.57;45138.56;5039838;28;20448;-74
2022/03/13 10:54:57;;;;;;;12.07;7.97;;;;;;;-143.84;36.58;45151.91;5035653;28;20498;-73
2022/03/13 10:57:26;;;;;;;12.17;8.07;;;;;;;-143.84;36.60;45134.75;5046004;28;20454;-73
2022/03/13 11:00:11;;;;;;;9.70;7.37;;;;;;;-143.84;36.76;45150.00;5040797;28;20466;-74
2022/03/13 11:02:38;;;;;;;15.80;8.03;;;;;;;-143.84;37.41;45153.81;5043132;28;20524;-74
2022/03/13 11:05:06;;;;;;;13.23;7.90;;;;;;;-143.84;36.59;45138.56;5039865;28;20453;-75
2022/03/13 11:07:33;;;;;;;17.47;8.10;;;;;;;-143.84;36.63;45169.03;5040146;28;20433;-75
2022/03/13 11:10:01;;;;;;;14.77;9.50;;;;;;;-143.84;36.99;45127.13;5041891;28;20876;-75
2022/03/13 11:12:30;;;;;;;26.57;11.27;;;;;;;-143.84;37.13;45134.75;5043351;28;20451;-74
2022/03/13 11:15:00;;;;;;;13.73;8.20;;;;;;;-143.84;36.30;45136.66;5035452;28;20478;-73
2022/03/13 11:17:30;;;;;;;12.27;8.47;;;;;;;-143.84;36.48;45138.56;5039215;28;20528;-73
2022/03/13 11:19:59;;;;;;;10.57;8.07;;;;;;;-143.84;36.50;45178.56;5038975;28;20454;-73